^^
Paulen-Weather Station Historical Data
Daily Summary for February 28, 2022 Units:  Metric    English   Both
Daily Weekly Monthly Yearly Custom
  High: Low: Average:
Temperature: 5 °C 1 °C 4.1 °C
Dew Point: 4 °C 0 °C 2.4 °C
Humidity: 97% 82% 89%
Wind Speed: 31km/h 2km/h 19.9km/h
Wind Gust: 28km/h - -
Wind- - SE
Pressure: 1033.53 hPa 1025.47 hPa -
Precipitation: 0 mm    
Historical Graphs
 
 
Tabular Data for February 28, 2022
Time Temperature Dew Point Pressure Wind Wind Speed Wind Gust Humidity Rainfall Rate (Hourly) solar
00:04 1 °C 1 °C 1033.53 hPa NW 5 km/h 4 km/h 95% 0 mm 0 W/m2
00:09 1 °C 0 °C 1033.49 hPa NNE 4 km/h 3 km/h 95% 0 mm 0 W/m2
00:14 1 °C 0 °C 1033.39 hPa NE 2 km/h 1 km/h 95% 0 mm 0 W/m2
00:19 1 °C 0 °C 1033.36 hPa NNW 2 km/h 1 km/h 95% 0 mm 0 W/m2
00:24 1 °C 1 °C 1033.36 hPa N 5 km/h 4 km/h 95% 0 mm 0 W/m2
00:29 2 °C 1 °C 1033.36 hPa N 7 km/h 6 km/h 96% 0 mm 0 W/m2
00:34 3 °C 2 °C 1033.32 hPa N 10 km/h 8 km/h 95% 0 mm 0 W/m2
00:39 3 °C 2 °C 1033.29 hPa NNW 13 km/h 11 km/h 93% 0 mm 0 W/m2
00:44 3 °C 2 °C 1033.19 hPa S 12 km/h 9 km/h 91% 0 mm 0 W/m2
00:49 3 °C 2 °C 1033.19 hPa SSE 17 km/h 13 km/h 90% 0 mm 0 W/m2
00:54 4 °C 2 °C 1033.15 hPa N 14 km/h 11 km/h 89% 0 mm 0 W/m2
00:59 4 °C 2 °C 1033.15 hPa N 10 km/h 9 km/h 89% 0 mm 0 W/m2
01:04 4 °C 2 °C 1033.19 hPa N 5 km/h 3 km/h 89% 0 mm 0 W/m2
01:09 3 °C 2 °C 1033.19 hPa N 3 km/h 2 km/h 88% 0 mm 0 W/m2
01:14 3 °C 1 °C 1033.19 hPa WNW 5 km/h 3 km/h 88% 0 mm 0 W/m2
01:19 2 °C 0 °C 1033.15 hPa NNW 5 km/h 4 km/h 88% 0 mm 0 W/m2
01:24 2 °C 0 °C 1033.15 hPa WNW 5 km/h 4 km/h 90% 0 mm 0 W/m2
01:29 1 °C 0 °C 1033.15 hPa WNW 7 km/h 5 km/h 91% 0 mm 0 W/m2
01:34 1 °C 0 °C 1033.12 hPa WNW 6 km/h 5 km/h 91% 0 mm 0 W/m2
01:39 1 °C 0 °C 1033.15 hPa NW 6 km/h 4 km/h 92% 0 mm 0 W/m2
01:44 1 °C 0 °C 1033.15 hPa NW 7 km/h 7 km/h 92% 0 mm 0 W/m2
01:49 1 °C 0 °C 1033.15 hPa NNW 7 km/h 6 km/h 92% 0 mm 0 W/m2
01:54 1 °C 0 °C 1033.02 hPa NNW 7 km/h 8 km/h 93% 0 mm 0 W/m2
01:59 1 °C 0 °C 1032.95 hPa NW 7 km/h 9 km/h 93% 0 mm 0 W/m2
02:04 1 °C 0 °C 1032.95 hPa NNW 6 km/h 7 km/h 94% 0 mm 0 W/m2
02:09 1 °C 0 °C 1032.92 hPa NNW 11 km/h 12 km/h 94% 0 mm 0 W/m2
02:14 1 °C 0 °C 1032.81 hPa NW 13 km/h 12 km/h 94% 0 mm 0 W/m2
02:19 1 °C 0 °C 1032.75 hPa NW 9 km/h 9 km/h 95% 0 mm 0 W/m2
02:24 1 °C 0 °C 1032.75 hPa NNW 8 km/h 8 km/h 95% 0 mm 0 W/m2
02:29 1 °C 0 °C 1032.65 hPa NNW 8 km/h 8 km/h 95% 0 mm 0 W/m2
02:34 1 °C 0 °C 1032.54 hPa NW 9 km/h 8 km/h 95% 0 mm 0 W/m2
02:39 1 °C 0 °C 1032.48 hPa NW 8 km/h 8 km/h 95% 0 mm 0 W/m2
02:44 1 °C 0 °C 1032.51 hPa NW 8 km/h 8 km/h 95% 0 mm 0 W/m2
02:49 1 °C 0 °C 1032.44 hPa WNW 7 km/h 7 km/h 95% 0 mm 0 W/m2
02:54 1 °C 1 °C 1032.41 hPa NNW 5 km/h 4 km/h 96% 0 mm 0 W/m2
02:59 2 °C 1 °C 1032.34 hPa SE 11 km/h 13 km/h 97% 0 mm 0 W/m2
03:04 3 °C 2 °C 1032.27 hPa SSE 13 km/h 14 km/h 96% 0 mm 0 W/m2
03:09 3 °C 2 °C 1032.17 hPa E 14 km/h 12 km/h 95% 0 mm 0 W/m2
03:14 3 °C 2 °C 1032.17 hPa N 15 km/h 13 km/h 94% 0 mm 0 W/m2
03:19 3 °C 3 °C 1032.1 hPa S 17 km/h 14 km/h 93% 0 mm 0 W/m2
03:24 4 °C 2 °C 1031.97 hPa ESE 18 km/h 16 km/h 92% 0 mm 0 W/m2
03:29 4 °C 2 °C 1031.93 hPa NE 21 km/h 18 km/h 91% 0 mm 0 W/m2
03:34 4 °C 2 °C 1031.97 hPa SE 15 km/h 14 km/h 91% 0 mm 0 W/m2
03:39 4 °C 2 °C 1031.93 hPa N 15 km/h 14 km/h 90% 0 mm 0 W/m2
03:44 4 °C 2 °C 1031.83 hPa SSE 18 km/h 15 km/h 90% 0 mm 0 W/m2
03:49 4 °C 2 °C 1031.83 hPa S 15 km/h 13 km/h 90% 0 mm 0 W/m2
03:54 4 °C 2 °C 1031.83 hPa SE 15 km/h 13 km/h 90% 0 mm 0 W/m2
03:59 4 °C 2 °C 1031.76 hPa ESE 17 km/h 14 km/h 90% 0 mm 0 W/m2
04:04 4 °C 2 °C 1031.63 hPa W 20 km/h 18 km/h 90% 0 mm 0 W/m2
04:09 4 °C 2 °C 1031.6 hPa SE 19 km/h 17 km/h 90% 0 mm 0 W/m2
04:14 4 °C 2 °C 1031.53 hPa N 20 km/h 19 km/h 90% 0 mm 0 W/m2
04:19 4 °C 2 °C 1031.43 hPa SE 20 km/h 18 km/h 91% 0 mm 0 W/m2
04:24 4 °C 2 °C 1031.43 hPa NE 22 km/h 17 km/h 91% 0 mm 0 W/m2
04:29 4 °C 2 °C 1031.43 hPa ESE 20 km/h 19 km/h 91% 0 mm 0 W/m2
04:34 4 °C 2 °C 1031.43 hPa SE 18 km/h 16 km/h 91% 0 mm 0 W/m2
04:39 4 °C 2 °C 1031.36 hPa SSW 16 km/h 15 km/h 91% 0 mm 0 W/m2
04:44 4 °C 2 °C 1031.26 hPa NNE 21 km/h 17 km/h 91% 0 mm 0 W/m2
04:49 4 °C 2 °C 1031.19 hPa S 19 km/h 14 km/h 91% 0 mm 0 W/m2
04:54 4 °C 2 °C 1031.16 hPa ESE 19 km/h 17 km/h 91% 0 mm 0 W/m2
04:59 4 °C 2 °C 1031.09 hPa SSE 21 km/h 19 km/h 91% 0 mm 0 W/m2
05:04 4 °C 2 °C 1030.99 hPa SSE 19 km/h 15 km/h 91% 0 mm 0 W/m2
05:09 4 °C 2 °C 1030.95 hPa SSW 20 km/h 18 km/h 91% 0 mm 0 W/m2
05:14 4 °C 2 °C 1030.95 hPa ENE 21 km/h 18 km/h 91% 0 mm 0 W/m2
05:19 4 °C 2 °C 1030.99 hPa SSE 21 km/h 19 km/h 91% 0 mm 0 W/m2
05:24 4 °C 2 °C 1030.99 hPa E 24 km/h 23 km/h 90% 0 mm 0 W/m2
05:29 4 °C 2 °C 1030.92 hPa SSE 23 km/h 19 km/h 90% 0 mm 0 W/m2
05:34 4 °C 2 °C 1030.92 hPa SW 18 km/h 17 km/h 90% 0 mm 0 W/m2
05:39 4 °C 2 °C 1030.82 hPa N 21 km/h 19 km/h 90% 0 mm 0 W/m2
05:44 4 °C 2 °C 1030.72 hPa SSE 19 km/h 19 km/h 90% 0 mm 0 W/m2
05:49 4 °C 2 °C 1030.65 hPa SE 23 km/h 21 km/h 90% 0 mm 0 W/m2
05:54 4 °C 2 °C 1030.65 hPa ESE 21 km/h 19 km/h 90% 0 mm 0 W/m2
05:59 4 °C 2 °C 1030.61 hPa NE 21 km/h 19 km/h 90% 0 mm 0 W/m2
06:04 4 °C 2 °C 1030.55 hPa S 21 km/h 18 km/h 90% 0 mm 0 W/m2
06:09 4 °C 2 °C 1030.48 hPa NE 27 km/h 23 km/h 89% 0 mm 0 W/m2
06:14 4 °C 2 °C 1030.48 hPa E 21 km/h 19 km/h 89% 0 mm 0 W/m2
06:19 4 °C 2 °C 1030.48 hPa NNE 21 km/h 20 km/h 90% 0 mm 0 W/m2
06:24 4 °C 2 °C 1030.48 hPa SE 19 km/h 17 km/h 90% 0 mm 0 W/m2
06:29 4 °C 2 °C 1030.48 hPa NE 25 km/h 21 km/h 90% 0 mm 0 W/m2
06:34 4 °C 2 °C 1030.51 hPa NE 19 km/h 18 km/h 90% 0 mm 0 W/m2
06:39 4 °C 2 °C 1030.51 hPa NNE 20 km/h 17 km/h 90% 0 mm 0 W/m2
06:44 4 °C 2 °C 1030.48 hPa SSE 19 km/h 18 km/h 90% 0 mm 0 W/m2
06:49 4 °C 2 °C 1030.48 hPa SSE 21 km/h 20 km/h 90% 0 mm 0 W/m2
06:54 4 °C 2 °C 1030.48 hPa N 22 km/h 20 km/h 90% 0 mm 0 W/m2
06:59 4 °C 2 °C 1030.44 hPa SSE 21 km/h 18 km/h 90% 0 mm 0 W/m2
07:04 4 °C 2 °C 1030.41 hPa ESE 20 km/h 17 km/h 91% 0 mm 0 W/m2
07:09 4 °C 2 °C 1030.38 hPa ESE 21 km/h 18 km/h 91% 0 mm 0 W/m2
07:14 4 °C 2 °C 1030.34 hPa W 22 km/h 19 km/h 90% 0 mm 0 W/m2
07:19 4 °C 2 °C 1030.34 hPa NW 22 km/h 19 km/h 90% 0 mm 0 W/m2
07:24 4 °C 2 °C 1030.34 hPa NNE 17 km/h 14 km/h 90% 0 mm 5 W/m2
07:29 4 °C 2 °C 1030.34 hPa N 20 km/h 16 km/h 91% 0 mm 7 W/m2
07:34 4 °C 2 °C 1030.27 hPa N 18 km/h 15 km/h 91% 0 mm 11 W/m2
07:39 4 °C 2 °C 1030.24 hPa N 18 km/h 17 km/h 91% 0 mm 14 W/m2
07:44 4 °C 2 °C 1030.21 hPa N 20 km/h 17 km/h 90% 0 mm 18 W/m2
07:49 4 °C 2 °C 1030.21 hPa NNW 20 km/h 18 km/h 90% 0 mm 25 W/m2
07:54 4 °C 2 °C 1030.24 hPa NNE 21 km/h 19 km/h 90% 0 mm 32 W/m2
07:59 4 °C 2 °C 1030.24 hPa N 20 km/h 18 km/h 90% 0 mm 39 W/m2
08:04 4 °C 2 °C 1030.21 hPa S 21 km/h 19 km/h 90% 0 mm 51 W/m2
08:09 4 °C 2 °C 1030.21 hPa NNE 19 km/h 16 km/h 90% 0 mm 62 W/m2
08:14 4 °C 2 °C 1030.21 hPa NE 19 km/h 15 km/h 90% 0 mm 81 W/m2
08:19 4 °C 3 °C 1030.17 hPa SSE 24 km/h 19 km/h 90% 0 mm 100 W/m2
08:24 4 °C 3 °C 1030.17 hPa NE 21 km/h 19 km/h 90% 0 mm 104 W/m2
08:29 4 °C 3 °C 1030.21 hPa NNE 19 km/h 17 km/h 90% 0 mm 114 W/m2
08:34 4 °C 3 °C 1030.21 hPa N 20 km/h 20 km/h 90% 0 mm 139 W/m2
08:39 4 °C 3 °C 1030.31 hPa N 21 km/h 18 km/h 90% 0 mm 135 W/m2
08:44 4 °C 3 °C 1030.38 hPa S 23 km/h 20 km/h 90% 0 mm 156 W/m2
08:49 4 °C 3 °C 1030.41 hPa SSE 22 km/h 22 km/h 89% 0 mm 141 W/m2
08:54 4 °C 3 °C 1030.48 hPa S 22 km/h 18 km/h 89% 0 mm 91 W/m2
08:59 4 °C 3 °C 1030.55 hPa SSE 21 km/h 17 km/h 90% 0 mm 91 W/m2
09:04 4 °C 3 °C 1030.61 hPa N 20 km/h 19 km/h 89% 0 mm 88 W/m2
09:09 4 °C 3 °C 1030.61 hPa SE 21 km/h 19 km/h 89% 0 mm 65 W/m2
09:14 4 °C 3 °C 1030.65 hPa N 22 km/h 19 km/h 89% 0 mm 56 W/m2
09:19 4 °C 3 °C 1030.68 hPa SSW 16 km/h 14 km/h 89% 0 mm 62 W/m2
09:24 4 °C 3 °C 1030.72 hPa NNE 21 km/h 17 km/h 90% 0 mm 63 W/m2
09:29 4 °C 3 °C 1030.75 hPa SSE 21 km/h 19 km/h 90% 0 mm 67 W/m2
09:34 4 °C 3 °C 1030.75 hPa WSW 18 km/h 17 km/h 90% 0 mm 83 W/m2
09:39 4 °C 3 °C 1030.78 hPa S 21 km/h 17 km/h 90% 0 mm 83 W/m2
09:44 4 °C 3 °C 1030.75 hPa SSE 20 km/h 17 km/h 90% 0 mm 83 W/m2
09:49 4 °C 3 °C 1030.68 hPa NNW 21 km/h 19 km/h 90% 0 mm 81 W/m2
09:54 4 °C 3 °C 1030.75 hPa ENE 24 km/h 20 km/h 90% 0 mm 81 W/m2
09:59 4 °C 3 °C 1030.78 hPa N 19 km/h 16 km/h 90% 0 mm 76 W/m2
10:04 4 °C 3 °C 1030.75 hPa N 21 km/h 20 km/h 90% 0 mm 67 W/m2
10:09 4 °C 3 °C 1030.75 hPa S 23 km/h 19 km/h 90% 0 mm 79 W/m2
10:14 4 °C 3 °C 1030.78 hPa N 22 km/h 19 km/h 89% 0 mm 81 W/m2
10:19 4 °C 3 °C 1030.65 hPa N 17 km/h 17 km/h 89% 0 mm 72 W/m2
10:24 4 °C 3 °C 1030.58 hPa SSE 16 km/h 13 km/h 90% 0 mm 76 W/m2
10:29 4 °C 3 °C 1030.58 hPa SSW 20 km/h 19 km/h 90% 0 mm 76 W/m2
10:34 4 °C 3 °C 1030.58 hPa S 21 km/h 19 km/h 89% 0 mm 74 W/m2
10:39 4 °C 3 °C 1030.58 hPa N 19 km/h 17 km/h 89% 0 mm 77 W/m2
10:44 4 °C 3 °C 1030.55 hPa E 19 km/h 16 km/h 89% 0 mm 76 W/m2
10:49 4 °C 3 °C 1030.55 hPa S 19 km/h 16 km/h 89% 0 mm 77 W/m2
10:54 4 °C 3 °C 1030.51 hPa SSE 19 km/h 16 km/h 89% 0 mm 70 W/m2
10:59 4 °C 3 °C 1030.51 hPa ESE 19 km/h 19 km/h 89% 0 mm 79 W/m2
11:04 4 °C 3 °C 1030.55 hPa SE 19 km/h 16 km/h 88% 0 mm 77 W/m2
11:09 4 °C 3 °C 1030.55 hPa N 15 km/h 16 km/h 88% 0 mm 70 W/m2
11:14 4 °C 2 °C 1030.55 hPa ENE 17 km/h 14 km/h 88% 0 mm 65 W/m2
11:19 4 °C 2 °C 1030.58 hPa SE 20 km/h 18 km/h 88% 0 mm 63 W/m2
11:24 4 °C 2 °C 1030.58 hPa SSE 20 km/h 17 km/h 88% 0 mm 63 W/m2
11:29 4 °C 2 °C 1030.58 hPa NNE 18 km/h 16 km/h 88% 0 mm 74 W/m2
11:34 4 °C 2 °C 1030.65 hPa W 19 km/h 17 km/h 88% 0 mm 77 W/m2
11:39 4 °C 2 °C 1030.68 hPa ESE 20 km/h 17 km/h 88% 0 mm 90 W/m2
11:44 4 °C 2 °C 1030.65 hPa NNE 20 km/h 16 km/h 88% 0 mm 90 W/m2
11:49 4 °C 2 °C 1030.61 hPa N 18 km/h 15 km/h 88% 0 mm 90 W/m2
11:54 4 °C 2 °C 1030.61 hPa ESE 21 km/h 17 km/h 88% 0 mm 88 W/m2
11:59 4 °C 2 °C 1030.61 hPa ENE 16 km/h 15 km/h 88% 0 mm 86 W/m2
12:04 4 °C 2 °C 1030.55 hPa SSE 20 km/h 19 km/h 88% 0 mm 120 W/m2
12:09 4 °C 2 °C 1030.48 hPa ENE 21 km/h 20 km/h 88% 0 mm 120 W/m2
12:14 4 °C 2 °C 1030.51 hPa SSE 19 km/h 17 km/h 88% 0 mm 109 W/m2
12:19 4 °C 3 °C 1030.55 hPa SSE 17 km/h 15 km/h 89% 0 mm 97 W/m2
12:24 4 °C 3 °C 1030.44 hPa SSE 21 km/h 19 km/h 89% 0 mm 91 W/m2
12:29 4 °C 3 °C 1030.48 hPa SE 19 km/h 17 km/h 89% 0 mm 93 W/m2
12:34 4 °C 3 °C 1030.51 hPa SE 18 km/h 17 km/h 89% 0 mm 74 W/m2
12:39 4 °C 3 °C 1030.58 hPa SE 18 km/h 16 km/h 89% 0 mm 70 W/m2
12:44 4 °C 3 °C 1030.65 hPa S 18 km/h 15 km/h 89% 0 mm 58 W/m2
12:49 4 °C 3 °C 1030.61 hPa NNE 17 km/h 15 km/h 90% 0 mm 49 W/m2
12:54 4 °C 3 °C 1030.48 hPa SSE 18 km/h 16 km/h 90% 0 mm 65 W/m2
12:59 4 °C 3 °C 1030.41 hPa SSE 16 km/h 13 km/h 90% 0 mm 70 W/m2
13:04 4 °C 3 °C 1030.44 hPa SSE 17 km/h 16 km/h 90% 0 mm 49 W/m2
13:09 4 °C 3 °C 1030.24 hPa SSE 22 km/h 20 km/h 90% 0 mm 58 W/m2
13:14 4 °C 3 °C 1030.21 hPa NNE 18 km/h 16 km/h 90% 0 mm 86 W/m2
13:19 4 °C 3 °C 1030.07 hPa SSE 21 km/h 19 km/h 90% 0 mm 97 W/m2
13:24 4 °C 3 °C 1030.14 hPa ENE 19 km/h 16 km/h 90% 0 mm 93 W/m2
13:29 4 °C 3 °C 1030.27 hPa ENE 18 km/h 15 km/h 90% 0 mm 76 W/m2
13:34 4 °C 3 °C 1030.27 hPa S 17 km/h 15 km/h 90% 0 mm 90 W/m2
13:39 4 °C 3 °C 1030.24 hPa SSE 18 km/h 16 km/h 90% 0 mm 76 W/m2
13:44 4 °C 3 °C 1030.27 hPa SE 19 km/h 15 km/h 90% 0 mm 77 W/m2
13:49 4 °C 3 °C 1030.24 hPa ESE 19 km/h 16 km/h 89% 0 mm 84 W/m2
13:54 4 °C 3 °C 1030.04 hPa SSE 17 km/h 15 km/h 89% 0 mm 65 W/m2
13:59 4 °C 3 °C 1029.94 hPa SSE 16 km/h 14 km/h 89% 0 mm 128 W/m2
14:04 4 °C 3 °C 1029.87 hPa NW 18 km/h 17 km/h 89% 0 mm 128 W/m2
14:09 4 °C 3 °C 1029.56 hPa SSE 17 km/h 16 km/h 88% 0 mm 107 W/m2
14:14 4 °C 3 °C 1029.6 hPa SE 20 km/h 19 km/h 88% 0 mm 128 W/m2
14:19 4 °C 3 °C 1029.6 hPa N 18 km/h 15 km/h 89% 0 mm 116 W/m2
14:24 5 °C 3 °C 1029.6 hPa NE 24 km/h 20 km/h 88% 0 mm 142 W/m2
14:29 5 °C 3 °C 1029.53 hPa SE 22 km/h 17 km/h 88% 0 mm 141 W/m2
14:34 5 °C 3 °C 1029.53 hPa N 23 km/h 21 km/h 88% 0 mm 127 W/m2
14:39 5 °C 3 °C 1029.6 hPa SE 26 km/h 20 km/h 88% 0 mm 95 W/m2
14:44 5 °C 3 °C 1029.73 hPa NNE 24 km/h 22 km/h 88% 0 mm 95 W/m2
14:49 5 °C 3 °C 1029.8 hPa N 22 km/h 21 km/h 88% 0 mm 91 W/m2
14:54 5 °C 3 °C 1029.8 hPa N 27 km/h 22 km/h 88% 0 mm 88 W/m2
14:59 5 °C 3 °C 1029.83 hPa NNE 22 km/h 18 km/h 87% 0 mm 81 W/m2
15:04 5 °C 3 °C 1029.77 hPa ENE 25 km/h 21 km/h 87% 0 mm 90 W/m2
15:09 5 °C 3 °C 1029.67 hPa NE 23 km/h 20 km/h 87% 0 mm 116 W/m2
15:14 5 °C 3 °C 1029.83 hPa ESE 20 km/h 17 km/h 88% 0 mm 97 W/m2
15:19 5 °C 3 °C 1029.8 hPa N 18 km/h 17 km/h 88% 0 mm 70 W/m2
15:24 5 °C 3 °C 1029.8 hPa N 17 km/h 15 km/h 88% 0 mm 90 W/m2
15:29 5 °C 3 °C 1029.77 hPa SE 16 km/h 16 km/h 88% 0 mm 90 W/m2
15:34 5 °C 3 °C 1029.8 hPa N 19 km/h 15 km/h 88% 0 mm 137 W/m2
15:39 5 °C 3 °C 1029.73 hPa N 17 km/h 15 km/h 88% 0 mm 137 W/m2
15:44 5 °C 3 °C 1029.53 hPa N 20 km/h 16 km/h 88% 0 mm 113 W/m2
15:49 5 °C 3 °C 1029.5 hPa NNE 25 km/h 22 km/h 88% 0 mm 156 W/m2
15:54 5 °C 3 °C 1029.33 hPa NNE 21 km/h 17 km/h 88% 0 mm 156 W/m2
15:59 5 °C 3 °C 1029.36 hPa N 20 km/h 17 km/h 88% 0 mm 118 W/m2
16:04 5 °C 3 °C 1029.36 hPa N 24 km/h 20 km/h 87% 0 mm 135 W/m2
16:09 5 °C 3 °C 1029.33 hPa N 21 km/h 17 km/h 87% 0 mm 146 W/m2
16:14 5 °C 3 °C 1029.29 hPa N 23 km/h 18 km/h 87% 0 mm 146 W/m2
16:19 5 °C 3 °C 1029.19 hPa NW 18 km/h 15 km/h 88% 0 mm 104 W/m2
16:24 5 °C 3 °C 1029.19 hPa S 19 km/h 17 km/h 88% 0 mm 67 W/m2
16:29 5 °C 3 °C 1029.12 hPa N 20 km/h 16 km/h 88% 0 mm 90 W/m2
16:34 5 °C 3 °C 1029.06 hPa N 21 km/h 20 km/h 88% 0 mm 90 W/m2
16:39 5 °C 3 °C 1028.99 hPa SSW 22 km/h 19 km/h 88% 0 mm 76 W/m2
16:44 5 °C 3 °C 1028.85 hPa N 23 km/h 21 km/h 88% 0 mm 76 W/m2
16:49 5 °C 3 °C 1028.78 hPa N 20 km/h 15 km/h 87% 0 mm 58 W/m2
16:54 5 °C 3 °C 1028.72 hPa N 24 km/h 20 km/h 87% 0 mm 51 W/m2
16:59 5 °C 3 °C 1028.75 hPa SSE 24 km/h 19 km/h 87% 0 mm 42 W/m2
17:04 5 °C 3 °C 1028.75 hPa N 20 km/h 17 km/h 87% 0 mm 35 W/m2
17:09 5 °C 3 °C 1028.62 hPa SE 21 km/h 18 km/h 87% 0 mm 32 W/m2
17:14 5 °C 3 °C 1028.68 hPa N 22 km/h 17 km/h 87% 0 mm 30 W/m2
17:19 5 °C 3 °C 1028.72 hPa N 24 km/h 20 km/h 87% 0 mm 26 W/m2
17:24 5 °C 3 °C 1028.72 hPa N 20 km/h 19 km/h 87% 0 mm 21 W/m2
17:29 5 °C 3 °C 1028.75 hPa N 22 km/h 17 km/h 87% 0 mm 19 W/m2
17:34 5 °C 3 °C 1028.75 hPa N 21 km/h 18 km/h 87% 0 mm 16 W/m2
17:39 5 °C 3 °C 1028.68 hPa NE 24 km/h 20 km/h 87% 0 mm 14 W/m2
17:44 5 °C 3 °C 1028.58 hPa SSE 22 km/h 20 km/h 86% 0 mm 11 W/m2
17:49 5 °C 3 °C 1028.45 hPa NE 17 km/h 17 km/h 87% 0 mm 9 W/m2
17:54 5 °C 3 °C 1028.45 hPa N 23 km/h 19 km/h 86% 0 mm 5 W/m2
17:59 5 °C 3 °C 1028.45 hPa W 21 km/h 20 km/h 86% 0 mm 0 W/m2
18:04 5 °C 3 °C 1028.41 hPa N 22 km/h 19 km/h 86% 0 mm 0 W/m2
18:09 5 °C 3 °C 1028.38 hPa NE 21 km/h 17 km/h 86% 0 mm 0 W/m2
18:14 5 °C 3 °C 1028.28 hPa SSE 19 km/h 17 km/h 86% 0 mm 0 W/m2
18:19 5 °C 3 °C 1028.18 hPa NNE 23 km/h 18 km/h 86% 0 mm 0 W/m2
18:24 5 °C 3 °C 1028.18 hPa NNE 23 km/h 17 km/h 85% 0 mm 0 W/m2
18:29 5 °C 2 °C 1028.18 hPa N 23 km/h 19 km/h 84% 0 mm 0 W/m2
18:34 5 °C 2 °C 1028.11 hPa N 26 km/h 20 km/h 83% 0 mm 0 W/m2
18:39 5 °C 2 °C 1028.11 hPa N 23 km/h 21 km/h 83% 0 mm 0 W/m2
18:44 5 °C 2 °C 1028.21 hPa N 25 km/h 20 km/h 83% 0 mm 0 W/m2
18:49 5 °C 2 °C 1028.18 hPa N 22 km/h 18 km/h 83% 0 mm 0 W/m2
18:54 5 °C 2 °C 1028.07 hPa E 27 km/h 23 km/h 82% 0 mm 0 W/m2
18:59 5 °C 2 °C 1028.11 hPa N 27 km/h 26 km/h 82% 0 mm 0 W/m2
19:04 5 °C 2 °C 1028.07 hPa N 26 km/h 22 km/h 82% 0 mm 0 W/m2
19:09 5 °C 2 °C 1028.07 hPa N 27 km/h 23 km/h 82% 0 mm 0 W/m2
19:14 5 °C 2 °C 1028.04 hPa SE 31 km/h 27 km/h 82% 0 mm 0 W/m2
19:19 5 °C 2 °C 1028.01 hPa N 28 km/h 25 km/h 82% 0 mm 0 W/m2
19:24 5 °C 2 °C 1027.97 hPa N 28 km/h 23 km/h 82% 0 mm 0 W/m2
19:29 5 °C 2 °C 1027.97 hPa N 27 km/h 22 km/h 83% 0 mm 0 W/m2
19:34 5 °C 2 °C 1027.97 hPa N 29 km/h 23 km/h 83% 0 mm 0 W/m2
19:39 5 °C 2 °C 1027.97 hPa NNW 26 km/h 21 km/h 83% 0 mm 0 W/m2
19:44 5 °C 2 °C 1027.94 hPa NNE 25 km/h 18 km/h 83% 0 mm 0 W/m2
19:49 5 °C 2 °C 1027.94 hPa N 28 km/h 24 km/h 83% 0 mm 0 W/m2
19:54 5 °C 2 °C 1027.87 hPa NE 25 km/h 22 km/h 83% 0 mm 0 W/m2
19:59 5 °C 2 °C 1027.8 hPa N 22 km/h 17 km/h 84% 0 mm 0 W/m2
20:04 5 °C 2 °C 1027.8 hPa N 22 km/h 19 km/h 84% 0 mm 0 W/m2
20:09 5 °C 3 °C 1027.77 hPa N 23 km/h 22 km/h 84% 0 mm 0 W/m2
20:14 5 °C 3 °C 1027.77 hPa N 21 km/h 16 km/h 85% 0 mm 0 W/m2
20:19 5 °C 3 °C 1027.77 hPa S 22 km/h 18 km/h 85% 0 mm 0 W/m2
20:24 5 °C 3 °C 1027.7 hPa N 22 km/h 19 km/h 85% 0 mm 0 W/m2
20:29 5 °C 3 °C 1027.63 hPa NW 27 km/h 21 km/h 85% 0 mm 0 W/m2
20:34 5 °C 3 °C 1027.6 hPa N 24 km/h 20 km/h 85% 0 mm 0 W/m2
20:39 5 °C 3 °C 1027.5 hPa N 22 km/h 19 km/h 85% 0 mm 0 W/m2
20:44 5 °C 3 °C 1027.5 hPa N 22 km/h 18 km/h 85% 0 mm 0 W/m2
20:49 5 °C 3 °C 1027.5 hPa N 25 km/h 21 km/h 85% 0 mm 0 W/m2
20:54 5 °C 3 °C 1027.4 hPa N 24 km/h 22 km/h 85% 0 mm 0 W/m2
20:59 5 °C 3 °C 1027.33 hPa N 28 km/h 23 km/h 85% 0 mm 0 W/m2
21:04 5 °C 3 °C 1027.19 hPa N 26 km/h 22 km/h 85% 0 mm 0 W/m2
21:09 5 °C 3 °C 1027.13 hPa N 24 km/h 20 km/h 85% 0 mm 0 W/m2
21:14 5 °C 3 °C 1027.13 hPa ESE 26 km/h 21 km/h 85% 0 mm 0 W/m2
21:19 5 °C 3 °C 1027.13 hPa N 26 km/h 18 km/h 86% 0 mm 0 W/m2
21:24 5 °C 3 °C 1027.16 hPa N 30 km/h 24 km/h 86% 0 mm 0 W/m2
21:29 5 °C 3 °C 1027.13 hPa NNE 23 km/h 17 km/h 86% 0 mm 0 W/m2
21:34 5 °C 3 °C 1026.96 hPa NNW 27 km/h 23 km/h 86% 0 mm 0 W/m2
21:39 5 °C 3 °C 1026.85 hPa N 29 km/h 25 km/h 87% 0 mm 0 W/m2
21:44 5 °C 3 °C 1026.92 hPa N 22 km/h 19 km/h 87% 0 mm 0 W/m2
21:49 5 °C 3 °C 1026.85 hPa N 21 km/h 19 km/h 87% 0 mm 0 W/m2
21:54 5 °C 3 °C 1026.79 hPa N 26 km/h 19 km/h 87% 0 mm 0 W/m2
21:59 5 °C 3 °C 1026.79 hPa N 25 km/h 23 km/h 87% 0 mm 0 W/m2
22:04 5 °C 3 °C 1026.75 hPa N 25 km/h 23 km/h 87% 0 mm 0 W/m2
22:09 5 °C 3 °C 1026.65 hPa N 28 km/h 19 km/h 88% 0 mm 0 W/m2
22:14 5 °C 3 °C 1026.55 hPa N 28 km/h 26 km/h 88% 0 mm 0 W/m2
22:19 5 °C 3 °C 1026.48 hPa N 27 km/h 24 km/h 88% 0 mm 0 W/m2
22:24 5 °C 3 °C 1026.41 hPa N 25 km/h 23 km/h 88% 0 mm 0 W/m2
22:29 5 °C 3 °C 1026.38 hPa N 26 km/h 23 km/h 88% 0 mm 0 W/m2
22:34 5 °C 3 °C 1026.28 hPa N 28 km/h 20 km/h 88% 0 mm 0 W/m2
22:39 5 °C 3 °C 1026.28 hPa N 28 km/h 24 km/h 88% 0 mm 0 W/m2
22:44 5 °C 3 °C 1026.21 hPa N 28 km/h 23 km/h 88% 0 mm 0 W/m2
22:49 5 °C 3 °C 1026.14 hPa N 26 km/h 20 km/h 88% 0 mm 0 W/m2
22:54 5 °C 3 °C 1026.14 hPa N 30 km/h 23 km/h 89% 0 mm 0 W/m2
22:59 5 °C 3 °C 1026.14 hPa N 27 km/h 22 km/h 88% 0 mm 0 W/m2
23:04 5 °C 3 °C 1026.14 hPa N 31 km/h 25 km/h 88% 0 mm 0 W/m2
23:09 5 °C 3 °C 1026.01 hPa SSW 29 km/h 24 km/h 88% 0 mm 0 W/m2
23:14 5 °C 3 °C 1025.91 hPa N 29 km/h 25 km/h 88% 0 mm 0 W/m2
23:19 5 °C 3 °C 1025.8 hPa N 30 km/h 26 km/h 88% 0 mm 0 W/m2
23:24 5 °C 3 °C 1025.8 hPa N 27 km/h 22 km/h 88% 0 mm 0 W/m2
23:29 5 °C 3 °C 1025.7 hPa N 29 km/h 24 km/h 88% 0 mm 0 W/m2
23:34 5 °C 3 °C 1025.74 hPa N 31 km/h 25 km/h 88% 0 mm 0 W/m2
23:39 5 °C 3 °C 1025.7 hPa N 28 km/h 25 km/h 88% 0 mm 0 W/m2
23:44 5 °C 3 °C 1025.64 hPa N 29 km/h 22 km/h 88% 0 mm 0 W/m2
23:49 5 °C 4 °C 1025.57 hPa N 28 km/h 23 km/h 88% 0 mm 0 W/m2
23:54 5 °C 4 °C 1025.5 hPa N 31 km/h 28 km/h 88% 0 mm 0 W/m2
23:59 5 °C 4 °C 1025.47 hPa N 30 km/h 27 km/h 88% 0 mm 0 W/m2
Compliments of Weather Underground - 2 mb